Terminal Aerodrome Forecast
Issued by NWS

Home | Current Version | Previous Version | Text Only | Print | Product List | Glossary On
Versions: 1 2 3 4 5 6 7 8 9 10 11 12 13 14 15 16
000
FTPA31 PHFO 210221 AAA
TAFHNY
TAF AMD
PHNY 210221Z 2102/2124 04020G30KT P6SM FEW015 SCT030
     FM210300 05018G26KT P6SM FEW015
     FM212100 05023G36KT P6SM FEW020 SCT030=

USA.gov is the U.S. government's official web portal to all federal, state and local government web resources and services.